Time;durP1;ratioP1;P1;durP2;ratioP2;P2;SDS_P1;SDS_P2;PMS_P1;PMS_P2;Temp;Humidity;BMP_temperature;BMP_pressure;BME280_temperature;BME280_humidity;BME280_pressure;Samples;Min_cycle;Max_cycle;Signal;HPM_P1;HPM_P2
2022/05/31 00:00:25;;;;;;;21.23;11.83;;;;;;;39.49;41.32;101052.56;5057821;28;20434;-74
2022/05/31 00:02:53;;;;;;;21.70;11.70;;;;;;;39.56;41.07;101051.31;5074214;28;20434;-75
2022/05/31 00:05:19;;;;;;;21.10;11.00;;;;;;;39.53;41.04;101050.00;5073701;28;20485;-73
2022/05/31 00:07:45;;;;;;;25.53;11.00;;;;;;;39.56;40.92;101038.53;5075277;28;20432;-73
2022/05/31 00:10:13;;;;;;;28.30;12.17;;;;;;;39.53;41.10;101044.59;5075366;28;20779;-74
2022/05/31 00:12:41;;;;;;;24.07;14.60;;;;;;;39.37;41.39;101049.63;5057189;28;20528;-73
2022/05/31 00:15:09;;;;;;;28.03;9.90;;;;;;;39.26;41.84;101042.06;5057099;28;20417;-74
2022/05/31 00:17:35;;;;;;;24.77;11.97;;;;;;;39.41;41.33;101044.38;5075210;28;20405;-75
2022/05/31 00:20:04;;;;;;;21.43;11.67;;;;;;;39.40;41.36;101049.00;5056829;28;20511;-75
2022/05/31 00:22:33;;;;;;;25.20;11.63;;;;;;;39.40;41.62;101040.06;5057054;28;20418;-75
2022/05/31 00:24:59;;;;;;;16.13;9.60;;;;;;;39.49;41.15;101052.56;5056944;28;20517;-75
2022/05/31 00:27:26;;;;;;;30.57;10.90;;;;;;;39.57;41.06;101044.78;5073798;28;20503;-74
2022/05/31 00:29:53;;;;;;;26.93;12.00;;;;;;;39.53;40.79;101030.22;5056949;28;20464;-73
2022/05/31 00:32:31;;;;;;;24.57;11.67;;;;;;;39.45;41.48;101042.66;5056547;28;20457;-73
2022/05/31 00:35:03;;;;;;;23.17;11.43;;;;;;;39.46;41.28;101045.03;5056691;28;20490;-75
2022/05/31 00:37:29;;;;;;;25.73;10.87;;;;;;;39.41;41.58;101026.19;5056729;28;20455;-75
2022/05/31 00:39:55;;;;;;;22.87;12.70;;;;;;;39.44;41.55;101027.47;5056983;28;20927;-75
2022/05/31 00:42:22;;;;;;;22.30;12.50;;;;;;;39.42;41.60;101027.78;5056462;28;20517;-75
2022/05/31 00:44:49;;;;;;;27.97;10.37;;;;;;;39.42;41.32;101008.00;5073321;28;20983;-74
2022/05/31 00:47:32;;;;;;;25.53;12.73;;;;;;;39.30;41.52;101000.44;5056562;28;20832;-75
2022/05/31 00:50:00;;;;;;;16.53;10.93;;;;;;;39.27;41.68;100994.81;5056850;28;20426;-75
2022/05/31 00:52:31;;;;;;;21.43;11.10;;;;;;;39.29;41.78;100992.59;5056484;28;20781;-74
2022/05/31 00:55:09;;;;;;;22.53;10.73;;;;;;;39.39;41.47;100993.13;5074517;28;20473;-74
2022/05/31 00:57:38;;;;;;;25.80;11.90;;;;;;;39.29;41.50;100987.16;5055950;28;20421;-74
2022/05/31 01:00:12;;;;;;;18.90;11.00;;;;;;;39.18;40.54;100983.94;5056344;28;20438;-74
2022/05/31 01:02:41;;;;;;;20.73;12.30;;;;;;;39.09;40.30;100974.91;5056317;28;20418;-75
2022/05/31 01:05:10;;;;;;;23.87;11.37;;;;;;;39.14;40.38;100975.59;5056243;28;20458;-73
2022/05/31 01:07:36;;;;;;;21.87;11.77;;;;;;;39.15;41.08;100966.31;5056223;28;20808;-73
2022/05/31 01:10:10;;;;;;;19.50;10.83;;;;;;;39.21;41.00;100964.31;5056099;28;20443;-73
2022/05/31 01:12:42;;;;;;;31.23;10.70;;;;;;;39.10;40.90;100979.22;5056150;28;20439;-74
2022/05/31 01:15:10;;;;;;;23.73;13.10;;;;;;;39.08;41.12;100965.19;5055902;28;20826;-74
2022/05/31 01:17:36;;;;;;;19.43;10.23;;;;;;;39.19;40.61;100964.63;5056011;28;20429;-75
2022/05/31 01:20:07;;;;;;;24.73;11.40;;;;;;;39.22;40.62;100964.00;5073960;28;20776;-73
2022/05/31 01:22:42;;;;;;;19.50;10.00;;;;;;;39.33;40.73;100967.22;5055747;28;20510;-73
2022/05/31 01:25:37;;;;;;;19.33;10.00;;;;;;;39.27;40.37;100965.78;5055766;28;20468;-73
2022/05/31 01:28:20;;;;;;;27.07;13.13;;;;;;;39.17;40.84;100964.16;5055941;28;20418;-74
2022/05/31 01:31:11;;;;;;;23.17;11.50;;;;;;;39.16;40.62;100969.88;5055823;28;20418;-75
2022/05/31 01:34:02;;;;;;;21.43;10.60;;;;;;;39.23;40.86;100978.38;5055788;28;20426;-75
2022/05/31 01:36:39;;;;;;;15.00;10.60;;;;;;;39.05;41.05;100984.81;5055981;28;20556;-74
2022/05/31 01:39:13;;;;;;;30.53;12.13;;;;;;;39.02;40.56;100982.69;5055600;28;20521;-75
2022/05/31 01:41:52;;;;;;;37.00;13.00;;;;;;;39.12;41.21;100988.66;5055454;28;20427;-75
2022/05/31 01:44:20;;;;;;;20.23;11.57;;;;;;;39.22;41.39;100974.84;5052004;28;20482;-75
2022/05/31 01:46:49;;;;;;;34.47;11.20;;;;;;;39.19;40.90;100974.69;5051889;28;20454;-73
2022/05/31 01:49:16;;;;;;;24.40;10.77;;;;;;;39.26;40.35;100976.94;5052518;28;20427;-73
2022/05/31 01:51:44;;;;;;;23.90;10.40;;;;;;;39.25;40.64;100968.00;5052090;28;20414;-74
2022/05/31 01:54:13;;;;;;;19.60;11.30;;;;;;;39.09;40.68;100978.44;5053295;28;20443;-74
2022/05/31 01:56:41;;;;;;;21.40;10.70;;;;;;;38.94;40.51;100970.69;5052050;28;20451;-73
2022/05/31 01:59:08;;;;;;;25.70;12.03;;;;;;;38.99;40.20;100967.84;5052054;28;20851;-75
2022/05/31 02:01:37;;;;;;;23.53;12.60;;;;;;;38.93;40.51;100974.53;5051661;28;20442;-74
2022/05/31 02:04:03;;;;;;;18.17;10.57;;;;;;;38.84;40.90;100979.09;5053015;28;20490;-74
2022/05/31 02:06:39;;;;;;;18.10;11.43;;;;;;;38.87;41.88;100978.47;5052056;28;20569;-75
2022/05/31 02:09:08;;;;;;;16.20;9.77;;;;;;;38.87;41.03;100973.06;5052021;28;20493;-75
2022/05/31 02:11:35;;;;;;;30.40;11.93;;;;;;;38.85;40.93;100965.22;5068387;28;20430;-75
2022/05/31 02:14:02;;;;;;;27.57;9.90;;;;;;;38.80;40.46;100965.34;5051626;28;20442;-75
2022/05/31 02:16:29;;;;;;;19.20;10.97;;;;;;;38.93;40.58;100961.75;5052801;28;20469;-75
2022/05/31 02:21:40;;;;;;;27.07;11.43;;;;;;;38.84;40.57;100962.81;5053135;28;20405;-74
2022/05/31 02:24:12;;;;;;;27.47;13.63;;;;;;;38.92;40.72;100956.66;5051352;28;20518;-75
2022/05/31 02:26:42;;;;;;;17.73;9.80;;;;;;;39.02;40.37;100942.00;5051387;28;20446;-73
2022/05/31 02:29:11;;;;;;;21.90;10.60;;;;;;;38.88;40.41;100956.47;5068040;28;20795;-74
2022/05/31 02:31:39;;;;;;;30.33;11.90;;;;;;;38.95;40.61;100954.09;5051470;28;20504;-75
2022/05/31 02:34:06;;;;;;;21.23;12.40;;;;;;;38.99;40.40;100953.50;5051332;28;20423;-75
2022/05/31 02:36:33;;;;;;;28.07;13.90;;;;;;;38.88;40.47;100950.25;5052554;28;20391;-73
2022/05/31 02:38:59;;;;;;;27.20;14.60;;;;;;;38.96;39.90;100942.13;5051127;28;20461;-73
2022/05/31 02:41:25;;;;;;;23.33;11.20;;;;;;;38.99;39.81;100939.94;5051109;28;20419;-74
2022/05/31 02:43:52;;;;;;;24.23;10.80;;;;;;;38.83;40.17;100939.53;5051026;28;20475;-74
2022/05/31 02:46:18;;;;;;;22.53;12.33;;;;;;;38.85;40.11;100934.56;5050769;28;20450;-75
2022/05/31 02:48:44;;;;;;;21.40;9.80;;;;;;;38.83;40.40;100925.97;5051024;28;20426;-75
2022/05/31 02:51:11;;;;;;;20.97;10.50;;;;;;;38.62;40.40;100926.47;5067766;28;20433;-75
2022/05/31 02:53:37;;;;;;;26.33;12.87;;;;;;;38.49;41.49;100926.50;5050968;28;20429;-73
2022/05/31 02:56:04;;;;;;;21.63;11.60;;;;;;;38.56;41.92;100930.41;5051008;28;20470;-73
2022/05/31 02:58:30;;;;;;;20.80;12.30;;;;;;;38.55;41.56;100931.53;5050878;28;20437;-73
2022/05/31 03:00:56;;;;;;;25.30;14.53;;;;;;;38.68;42.13;100927.94;5050707;28;20441;-73
2022/05/31 03:03:22;;;;;;;17.23;11.73;;;;;;;38.67;42.45;100920.09;5051065;28;20457;-75
2022/05/31 03:05:50;;;;;;;33.87;12.00;;;;;;;38.78;41.92;100917.94;5051429;28;20454;-75
2022/05/31 03:08:17;;;;;;;26.30;12.50;;;;;;;38.72;41.79;100935.47;5050666;28;20429;-73
2022/05/31 03:10:48;;;;;;;26.27;14.37;;;;;;;38.60;42.11;100930.56;5050741;28;20465;-75
2022/05/31 03:13:20;;;;;;;29.50;14.27;;;;;;;38.56;42.32;100930.41;5050610;28;20820;-75
2022/05/31 03:15:48;;;;;;;30.60;12.10;;;;;;;38.62;41.78;100936.50;5052013;28;20482;-74
2022/05/31 03:18:22;;;;;;;16.37;9.77;;;;;;;38.52;41.77;100932.13;5050622;28;20485;-73
2022/05/31 03:20:56;;;;;;;29.60;12.27;;;;;;;38.49;41.94;100942.75;5051900;28;20785;-73
2022/05/31 03:23:38;;;;;;;21.30;10.23;;;;;;;38.67;41.35;100944.47;5050665;28;20457;-73
2022/05/31 03:26:08;;;;;;;24.43;11.97;;;;;;;38.69;41.60;100943.09;5051901;28;20523;-73
2022/05/31 03:28:35;;;;;;;27.00;13.37;;;;;;;38.77;41.85;100941.56;5050566;28;20431;-73
2022/05/31 03:31:03;;;;;;;25.70;12.07;;;;;;;38.64;41.88;100932.34;5050595;28;20422;-73
2022/05/31 03:33:30;;;;;;;27.67;14.43;;;;;;;38.71;42.01;100940.06;5050489;28;20458;-73
2022/05/31 03:35:56;;;;;;;28.97;12.57;;;;;;;38.63;41.74;100938.91;5050458;28;20441;-73
2022/05/31 03:38:22;;;;;;;19.10;9.33;;;;;;;38.79;41.19;100947.47;5051869;28;20459;-73
2022/05/31 03:40:57;;;;;;;27.47;11.07;;;;;;;38.66;41.65;100948.31;5067097;28;20410;-73
2022/05/31 03:43:25;;;;;;;22.40;13.53;;;;;;;38.72;41.47;100943.59;5050449;28;20493;-73
2022/05/31 03:45:52;;;;;;;28.80;13.57;;;;;;;38.64;42.11;100947.84;5051476;28;20454;-75
2022/05/31 03:48:19;;;;;;;21.93;13.83;;;;;;;38.60;42.33;100961.19;5051764;28;20457;-74
2022/05/31 03:50:45;;;;;;;36.20;12.37;;;;;;;38.75;42.45;100954.63;5050099;28;20452;-74
2022/05/31 03:53:13;;;;;;;21.40;11.93;;;;;;;38.54;42.68;100953.50;5050448;28;20954;-75
2022/05/31 03:55:44;;;;;;;30.20;13.07;;;;;;;38.66;42.45;100949.09;5050454;28;20506;-73
2022/05/31 03:58:10;;;;;;;32.50;12.67;;;;;;;38.70;42.30;100943.88;5033700;28;20481;-73
2022/05/31 04:00:37;;;;;;;31.00;13.07;;;;;;;38.78;42.05;100948.56;5033730;28;20499;-73
2022/05/31 04:03:03;;;;;;;35.17;14.53;;;;;;;38.82;41.91;100952.28;5050248;28;20437;-73
2022/05/31 04:05:29;;;;;;;20.97;12.63;;;;;;;38.84;41.71;100954.69;5050099;28;20478;-73
2022/05/31 04:08:01;;;;;;;28.57;11.73;;;;;;;38.92;41.58;100959.38;5050166;28;20423;-75
2022/05/31 04:10:29;;;;;;;18.33;10.90;;;;;;;38.95;41.55;100964.16;5051501;28;20763;-75
2022/05/31 04:12:56;;;;;;;23.83;11.83;;;;;;;38.94;41.42;100959.84;5050126;28;20415;-74
2022/05/31 04:15:22;;;;;;;20.90;9.77;;;;;;;38.84;41.40;100965.53;5050126;28;20419;-73
2022/05/31 04:17:48;;;;;;;21.53;11.90;;;;;;;38.73;41.65;100964.97;5066281;28;20427;-74
2022/05/31 04:20:14;;;;;;;27.37;11.83;;;;;;;38.70;41.91;100955.53;5050211;28;20802;-73
2022/05/31 04:22:40;;;;;;;35.43;12.93;;;;;;;38.82;41.79;100955.00;5050184;28;20830;-75
2022/05/31 04:25:07;;;;;;;22.37;13.10;;;;;;;38.83;41.37;100955.78;5049672;28;20470;-74
2022/05/31 04:27:33;;;;;;;26.50;11.47;;;;;;;38.81;41.49;100955.31;5051314;28;20403;-75
2022/05/31 04:29:59;;;;;;;25.23;10.90;;;;;;;38.82;41.66;100967.75;5049931;28;20422;-75
2022/05/31 04:32:25;;;;;;;23.27;11.77;;;;;;;38.75;41.76;100964.69;5052467;28;20813;-75
2022/05/31 04:34:52;;;;;;;28.53;12.67;;;;;;;38.61;41.55;100973.66;5053635;28;20553;-75
2022/05/31 04:37:18;;;;;;;19.97;11.07;;;;;;;38.59;41.47;100983.19;5053661;28;20426;-75
2022/05/31 04:39:44;;;;;;;17.03;9.70;;;;;;;38.59;42.24;100986.69;5053353;28;20504;-74
2022/05/31 04:42:11;;;;;;;18.43;12.17;;;;;;;38.28;44.14;100985.81;5070220;28;20430;-74
2022/05/31 04:44:37;;;;;;;29.83;11.57;;;;;;;38.11;44.85;100991.84;5053056;28;20482;-73
2022/05/31 04:47:05;;;;;;;31.10;13.90;;;;;;;37.38;46.59;100998.94;5036644;28;20450;-73
2022/05/31 04:49:31;;;;;;;26.37;13.47;;;;;;;36.58;48.70;100995.34;5053533;28;20460;-73
2022/05/31 04:51:57;;;;;;;22.50;13.17;;;;;;;36.43;48.26;101019.91;5054477;28;20496;-74
2022/05/31 04:54:24;;;;;;;27.37;10.13;;;;;;;35.53;46.89;100997.19;5053337;28;20484;-75
2022/05/31 04:56:54;;;;;;;27.47;12.80;;;;;;;34.92;50.82;101002.28;5052955;28;20965;-75
2022/05/31 04:59:21;;;;;;;16.80;10.73;;;;;;;35.16;48.42;100975.44;5054554;28;20395;-75
2022/05/31 05:01:47;;;;;;;17.00;8.50;;;;;;;34.85;48.96;100947.91;5053161;28;20450;-75
2022/05/31 05:04:13;;;;;;;18.27;9.33;;;;;;;34.50;48.94;100978.59;5069987;28;20422;-75
2022/05/31 05:06:39;;;;;;;18.60;10.30;;;;;;;34.80;48.74;100996.44;5069752;28;20426;-75
2022/05/31 05:09:06;;;;;;;15.33;9.43;;;;;;;34.47;49.69;101009.59;5052786;28;20429;-73
2022/05/31 05:11:32;;;;;;;19.93;9.83;;;;;;;33.90;50.06;101019.78;5069711;28;20415;-73
2022/05/31 05:13:59;;;;;;;13.33;7.97;;;;;;;34.62;48.16;101011.38;5052784;28;20960;-73
2022/05/31 05:16:26;;;;;;;12.47;7.83;;;;;;;34.81;48.02;101033.13;5069585;28;20442;-73
2022/05/31 05:18:52;;;;;;;13.73;7.13;;;;;;;34.83;47.22;101057.88;5069553;28;20909;-73
2022/05/31 05:21:18;;;;;;;9.30;5.20;;;;;;;35.29;46.86;101042.19;5054097;28;20490;-73
2022/05/31 05:23:45;;;;;;;10.07;5.93;;;;;;;35.88;46.36;101029.47;5069297;28;20431;-73
2022/05/31 05:26:12;;;;;;;13.80;7.13;;;;;;;36.22;46.00;101037.47;5069278;28;20490;-73
2022/05/31 05:31:24;;;;;;;14.30;6.70;;;;;;;35.24;47.78;101053.03;5053906;28;20392;-73
2022/05/31 05:33:51;;;;;;;18.40;7.27;;;;;;;34.91;48.20;101049.19;5066964;28;20435;-73
2022/05/31 05:36:18;;;;;;;11.80;6.07;;;;;;;35.23;46.98;101040.63;5052368;28;20410;-74
2022/05/31 05:38:44;;;;;;;15.07;7.93;;;;;;;35.43;46.94;101039.69;5052319;28;20418;-74
2022/05/31 05:41:10;;;;;;;10.13;5.97;;;;;;;35.39;47.17;101050.19;5052207;28;20419;-76
2022/05/31 05:43:37;;;;;;;12.60;6.80;;;;;;;35.75;46.67;101052.56;5052123;28;21027;-74
2022/05/31 05:46:10;;;;;;;8.00;4.90;;;;;;;35.83;45.20;101054.63;5052208;28;20971;-73
2022/05/31 05:48:36;;;;;;;10.50;5.07;;;;;;;36.23;44.99;101064.19;5052223;28;20419;-73
2022/05/31 05:51:14;;;;;;;12.63;6.37;;;;;;;36.59;45.08;101069.16;5052661;28;20419;-74
2022/05/31 05:53:41;;;;;;;19.93;7.10;;;;;;;36.62;44.04;101046.13;5052556;28;20442;-73
2022/05/31 05:56:07;;;;;;;12.10;7.40;;;;;;;36.20;44.63;101047.75;5052802;28;20434;-73
2022/05/31 05:58:33;;;;;;;9.87;5.03;;;;;;;36.09;44.77;101057.06;5052134;28;20438;-71
2022/05/31 06:01:01;;;;;;;12.43;5.43;;;;;;;36.25;44.94;101061.19;5048016;28;20458;-73
2022/05/31 06:03:50;;;;;;;12.40;6.17;;;;;;;36.41;44.42;101062.63;5050332;28;20955;-75
2022/05/31 06:06:17;;;;;;;11.43;5.90;;;;;;;36.37;43.97;101047.25;5020353;28;20998;-73
2022/05/31 06:08:54;;;;;;;13.37;7.20;;;;;;;36.31;44.28;101031.13;5042347;28;20907;-74
2022/05/31 06:11:28;;;;;;;11.40;5.70;;;;;;;36.39;43.88;101026.97;5047075;28;20413;-74
2022/05/31 06:14:05;;;;;;;13.97;7.30;;;;;;;36.42;43.74;101034.53;5051759;28;20411;-74
2022/05/31 06:16:35;;;;;;;14.70;7.37;;;;;;;36.03;44.31;101042.81;5048487;28;20454;-76
2022/05/31 06:19:09;;;;;;;15.43;7.30;;;;;;;35.94;45.39;101041.84;5054680;28;20855;-74
2022/05/31 06:21:35;;;;;;;19.33;6.80;;;;;;;36.02;44.95;101044.72;5049568;28;20418;-75
2022/05/31 06:24:02;;;;;;;13.10;7.20;;;;;;;36.09;44.53;101048.97;5055446;28;20548;-77
2022/05/31 06:26:29;;;;;;;13.30;7.20;;;;;;;36.13;44.62;101056.19;5051308;28;20450;-73
2022/05/31 06:28:55;;;;;;;19.80;9.03;;;;;;;36.36;44.19;101059.16;5051303;28;20426;-73
2022/05/31 06:31:21;;;;;;;16.33;8.40;;;;;;;36.04;45.43;101057.94;5049857;28;20431;-73
2022/05/31 06:33:47;;;;;;;12.33;8.27;;;;;;;36.10;45.19;101058.69;5050586;28;20929;-72
2022/05/31 06:36:14;;;;;;;22.00;8.23;;;;;;;36.12;45.00;101056.50;5050191;28;20877;-73
2022/05/31 06:38:41;;;;;;;18.20;8.90;;;;;;;36.57;45.21;101069.41;5051227;28;20486;-72
2022/05/31 06:41:08;;;;;;;14.60;8.40;;;;;;;37.04;43.45;101070.38;5049421;28;20431;-72
2022/05/31 06:43:37;;;;;;;17.17;10.17;;;;;;;37.23;42.90;101077.66;5049008;28;20471;-76
2022/05/31 06:46:05;;;;;;;14.43;9.87;;;;;;;37.23;42.89;101091.97;5048723;28;20451;-74
2022/05/31 06:48:31;;;;;;;17.50;11.50;;;;;;;37.29;43.51;101096.22;5032358;28;20415;-73
2022/05/31 06:50:58;;;;;;;14.60;9.13;;;;;;;37.26;42.73;101096.00;5048710;28;20517;-72
2022/05/31 06:58:52;;;;;;;21.83;13.77;;;;;;;37.09;43.49;101081.13;5050914;28;20789;-72
2022/05/31 07:01:20;;;;;;;24.97;12.90;;;;;;;37.16;43.00;101085.34;5049346;28;20438;-72
2022/05/31 07:03:46;;;;;;;24.50;13.80;;;;;;;36.89;43.43;101094.13;5049571;28;20429;-73
2022/05/31 07:06:12;;;;;;;15.63;10.73;;;;;;;37.12;44.04;101095.94;5049083;28;20462;-74
2022/05/31 07:08:38;;;;;;;21.70;12.93;;;;;;;37.29;43.73;101088.09;5051300;28;20407;-75
2022/05/31 07:11:07;;;;;;;19.30;15.60;;;;;;;37.34;42.37;101098.06;5050028;28;20426;-74
2022/05/31 07:13:33;;;;;;;26.37;17.03;;;;;;;37.37;43.14;101111.78;5051569;28;20448;-73
2022/05/31 07:16:02;;;;;;;28.07;20.30;;;;;;;37.51;43.53;101111.84;5051648;28;20407;-74
2022/05/31 07:18:29;;;;;;;25.40;20.13;;;;;;;37.57;43.11;101121.50;5050459;28;20937;-74
2022/05/31 07:20:55;;;;;;;30.60;21.00;;;;;;;37.50;43.38;101139.19;5049907;28;20805;-74
2022/05/31 07:23:22;;;;;;;34.60;25.67;;;;;;;37.47;43.44;101137.09;5051400;28;20414;-73
2022/05/31 07:25:48;;;;;;;25.60;18.30;;;;;;;37.48;43.32;101134.06;5050155;28;20482;-73
2022/05/31 07:28:14;;;;;;;24.43;19.00;;;;;;;37.34;43.14;101138.66;5050271;28;20454;-73
2022/05/31 07:30:40;;;;;;;28.80;15.53;;;;;;;37.13;43.63;101138.13;5049757;28;20429;-72
2022/05/31 07:33:06;;;;;;;18.47;15.50;;;;;;;37.32;42.86;101151.63;5080248;22;20487;-71
2022/05/31 07:35:32;;;;;;;33.70;22.13;;;;;;;37.46;42.34;101154.44;5080566;28;20433;-71
2022/05/31 07:37:58;;;;;;;40.40;29.30;;;;;;;37.43;42.89;101152.31;5078188;28;20512;-71
2022/05/31 07:40:25;;;;;;;38.43;26.97;;;;;;;37.45;42.96;101156.34;5075007;28;20433;-72
2022/05/31 07:42:51;;;;;;;45.83;31.60;;;;;;;37.63;43.27;101155.47;5071760;28;20459;-72
2022/05/31 07:45:17;;;;;;;27.63;20.50;;;;;;;37.64;42.59;101164.41;5072680;28;20460;-71
2022/05/31 07:47:43;;;;;;;28.07;19.33;;;;;;;37.72;42.57;101168.34;5079740;28;20780;-72
2022/05/31 07:50:09;;;;;;;27.27;20.60;;;;;;;37.79;42.43;101164.13;5079100;28;20421;-73
2022/05/31 07:52:36;;;;;;;40.17;23.43;;;;;;;37.91;42.82;101171.81;5079966;28;20446;-73
2022/05/31 07:55:02;;;;;;;65.23;42.97;;;;;;;37.94;43.05;101168.50;5082365;28;20460;-72
2022/05/31 08:00:13;;;;;;;52.00;37.17;;;;;;;37.77;42.95;101173.66;5080243;28;20767;-77
2022/05/31 08:02:39;;;;;;;42.87;30.77;;;;;;;37.87;42.78;101166.16;5059243;28;20450;-72
2022/05/31 08:05:06;;;;;;;38.73;24.60;;;;;;;37.91;43.29;101160.97;5065755;28;20461;-72
2022/05/31 08:07:32;;;;;;;33.63;26.70;;;;;;;37.91;43.13;101155.56;5073236;28;20505;-72
2022/05/31 08:09:59;;;;;;;32.57;25.30;;;;;;;38.01;42.72;101158.09;5064912;28;20991;-72
2022/05/31 08:12:25;;;;;;;38.03;23.60;;;;;;;38.08;42.66;101155.78;5068200;28;20823;-73
2022/05/31 08:14:51;;;;;;;32.57;22.23;;;;;;;37.98;43.02;101169.50;5064673;28;20449;-71
2022/05/31 08:17:17;;;;;;;37.03;26.80;;;;;;;38.07;43.45;101165.00;5058294;28;20440;-73
2022/05/31 08:19:43;;;;;;;35.13;25.17;;;;;;;38.16;43.24;101162.41;5055128;28;20452;-72
2022/05/31 08:22:09;;;;;;;39.13;29.80;;;;;;;38.15;43.31;101158.88;5061535;28;20512;-73
2022/05/31 08:24:37;;;;;;;38.20;27.10;;;;;;;38.21;43.39;101153.38;5063525;28;20468;-74
2022/05/31 08:27:03;;;;;;;39.33;25.27;;;;;;;38.23;43.09;101162.00;5061699;28;20452;-72
2022/05/31 08:29:30;;;;;;;24.80;18.13;;;;;;;38.25;43.52;101159.81;5062360;28;20805;-72
2022/05/31 08:32:00;;;;;;;28.47;19.73;;;;;;;38.25;43.98;101168.75;5071392;28;20911;-73
2022/05/31 08:34:29;;;;;;;33.50;22.50;;;;;;;38.12;44.40;101159.50;5060289;28;20958;-72
2022/05/31 08:36:56;;;;;;;29.97;20.07;;;;;;;38.21;44.36;101172.34;5081029;28;20414;-73
2022/05/31 08:39:22;;;;;;;38.63;19.60;;;;;;;38.18;44.04;101166.44;5056901;28;20833;-73
2022/05/31 08:41:52;;;;;;;30.07;20.43;;;;;;;37.96;44.79;101162.78;5061851;28;20511;-74
2022/05/31 08:44:24;;;;;;;31.70;19.40;;;;;;;37.97;45.21;101161.69;5066400;28;20419;-72
2022/05/31 08:47:02;;;;;;;26.43;18.20;;;;;;;37.75;45.52;101157.72;5056510;28;20803;-73
2022/05/31 08:52:52;;;;;;;26.07;17.70;;;;;;;38.05;45.24;101182.66;5074703;28;20392;-72
2022/05/31 08:58:35;;;;;;;23.83;17.60;;;;;;;38.08;44.92;101193.69;5079764;28;20839;-72
2022/05/31 09:01:04;;;;;;;37.20;30.57;;;;;;;38.11;44.98;101195.78;5062855;28;20467;-73
2022/05/31 09:03:31;;;;;;;25.27;20.13;;;;;;;38.14;44.73;101197.91;5063880;28;20414;-72
2022/05/31 09:06:07;;;;;;;48.93;32.70;;;;;;;38.23;44.55;101199.94;5083849;28;20460;-73
2022/05/31 09:08:49;;;;;;;38.07;23.40;;;;;;;38.34;44.23;101209.50;5067091;28;20494;-73
2022/05/31 09:11:21;;;;;;;38.57;23.63;;;;;;;38.44;44.17;101207.41;5069407;28;20425;-73
2022/05/31 09:14:05;;;;;;;31.30;21.93;;;;;;;38.53;44.19;101206.69;5062007;28;20478;-73
2022/05/31 09:16:41;;;;;;;27.50;20.50;;;;;;;38.61;44.21;101200.53;5062525;28;20449;-72
2022/05/31 09:19:13;;;;;;;27.83;20.40;;;;;;;38.48;43.99;101193.22;5070211;28;20424;-76
2022/05/31 09:21:48;;;;;;;31.30;21.93;;;;;;;38.54;43.70;101192.81;5071917;28;20452;-72
2022/05/31 09:24:19;;;;;;;26.40;20.60;;;;;;;38.57;43.45;101189.53;5081281;28;20468;-74
2022/05/31 09:27:09;;;;;;;33.90;20.67;;;;;;;38.65;43.66;101188.81;5057569;28;20437;-75
2022/05/31 09:30:01;;;;;;;31.00;19.50;;;;;;;38.69;43.19;101192.53;5082058;28;20450;-72
2022/05/31 09:33:10;;;;;;;28.07;21.47;;;;;;;38.78;43.28;101197.25;5081580;28;20568;-74
2022/05/31 09:35:57;;;;;;;26.80;17.70;;;;;;;38.82;43.03;101195.53;5065440;28;20413;-72
2022/05/31 09:38:48;;;;;;;35.80;20.37;;;;;;;38.81;43.52;101192.03;5062395;28;20417;-72
2022/05/31 09:41:27;;;;;;;27.07;17.60;;;;;;;38.86;43.42;101194.63;5064949;28;21338;-70
2022/05/31 09:44:14;;;;;;;24.37;15.10;;;;;;;38.88;42.68;101186.19;5074054;28;20427;-71
2022/05/31 09:46:51;;;;;;;23.40;12.43;;;;;;;38.75;42.98;101193.25;5078782;28;20489;-70
2022/05/31 09:49:23;;;;;;;23.50;13.33;;;;;;;38.70;42.75;101191.41;5055290;28;20429;-71
2022/05/31 09:51:50;;;;;;;21.30;13.57;;;;;;;38.77;42.82;101192.94;5061560;28;20449;-73
2022/05/31 09:57:11;;;;;;;27.77;14.70;;;;;;;38.90;42.95;101198.31;5082668;28;20905;-72
2022/05/31 09:59:47;;;;;;;46.00;14.90;;;;;;;38.84;42.94;101202.25;5055424;28;20872;-74
2022/05/31 10:02:30;;;;;;;22.40;10.67;;;;;;;38.84;42.38;101199.53;5077819;28;20447;-72
2022/05/31 10:05:21;;;;;;;25.93;13.10;;;;;;;38.78;42.32;101205.38;5064916;28;20857;-73
2022/05/31 10:07:49;;;;;;;21.57;12.30;;;;;;;38.81;42.02;101199.38;5062211;28;20425;-73
2022/05/31 10:10:27;;;;;;;21.90;12.20;;;;;;;38.90;42.07;101205.66;5073411;28;20417;-73
2022/05/31 10:12:57;;;;;;;26.93;15.20;;;;;;;38.98;41.97;101207.66;5055119;28;20939;-74
2022/05/31 10:15:42;;;;;;;21.90;11.07;;;;;;;38.97;41.44;101209.56;5055052;28;20413;-73
2022/05/31 10:18:22;;;;;;;20.47;10.70;;;;;;;38.95;41.34;101202.84;5053835;28;20429;-72
2022/05/31 10:21:00;;;;;;;24.63;12.47;;;;;;;38.92;41.34;101193.41;5053186;28;20428;-74
2022/05/31 10:23:44;;;;;;;21.33;11.03;;;;;;;38.87;41.43;101182.69;5071069;28;20444;-74
2022/05/31 10:26:25;;;;;;;23.23;13.00;;;;;;;38.87;41.30;101176.44;5053139;28;20548;-73
2022/05/31 10:29:00;;;;;;;21.63;12.00;;;;;;;38.84;42.06;101182.47;5070886;28;20928;-73
2022/05/31 10:31:36;;;;;;;19.17;10.10;;;;;;;38.78;41.87;101173.66;5052248;28;20912;-73
2022/05/31 10:34:44;;;;;;;16.63;12.30;;;;;;;38.74;42.49;101177.28;5050975;28;20549;-74
2022/05/31 10:37:32;;;;;;;25.63;11.80;;;;;;;38.76;42.00;101175.06;5051415;28;20431;-73
2022/05/31 10:40:07;;;;;;;23.30;13.47;;;;;;;38.67;41.68;101166.78;5051187;28;20534;-73
2022/05/31 10:42:38;;;;;;;19.10;11.50;;;;;;;38.63;41.24;101169.34;5051231;28;20515;-74
2022/05/31 10:45:07;;;;;;;17.13;10.03;;;;;;;38.73;41.76;101162.09;5051632;28;20524;-72
2022/05/31 10:47:33;;;;;;;26.13;12.40;;;;;;;38.83;41.74;101148.31;5059983;28;20790;-79
2022/05/31 10:50:01;;;;;;;23.90;12.40;;;;;;;38.86;42.02;101148.53;5061113;28;21189;-79
2022/05/31 10:53:03;;;;;;;17.93;12.50;;;;;;;38.96;42.18;101142.06;5060656;28;20996;-78
2022/05/31 10:55:47;;;;;;;18.60;11.43;;;;;;;38.95;41.90;101138.53;5058613;28;20458;-79
2022/05/31 10:58:35;;;;;;;22.13;9.83;;;;;;;39.02;41.37;101137.31;5060183;28;20480;-74
2022/05/31 11:01:34;;;;;;;30.20;11.80;;;;;;;39.01;41.21;101125.66;5070805;28;20829;-75
2022/05/31 11:04:18;;;;;;;15.97;8.90;;;;;;;39.12;41.17;101128.94;5070831;28;20445;-73
2022/05/31 11:07:18;;;;;;;16.40;9.43;;;;;;;39.16;41.52;101130.75;5058604;28;20465;-73
2022/05/31 11:13:10;;;;;;;26.60;8.73;;;;;;;38.87;41.90;101147.41;5039581;28;20463;-74
2022/05/31 11:16:05;;;;;;;14.43;8.67;;;;;;;38.95;41.78;101159.44;5031623;28;20937;-73
2022/05/31 11:18:49;;;;;;;13.70;9.50;;;;;;;39.09;41.44;101153.97;5031428;28;20427;-73
2022/05/31 11:21:37;;;;;;;18.67;10.00;;;;;;;39.01;41.49;101160.94;5031222;28;20434;-73
2022/05/31 11:24:13;;;;;;;23.77;9.73;;;;;;;39.01;41.25;101157.41;5032234;28;20435;-74
2022/05/31 11:27:05;;;;;;;13.00;8.30;;;;;;;38.91;41.81;101153.03;5031253;28;20516;-73
2022/05/31 11:29:51;;;;;;;29.77;12.67;;;;;;;38.95;41.86;101152.09;5062009;28;20406;-74
2022/05/31 11:32:32;;;;;;;21.23;11.30;;;;;;;39.07;42.02;101150.75;5061289;28;20465;-74
2022/05/31 11:35:25;;;;;;;21.73;11.00;;;;;;;38.74;41.89;101144.75;5063353;28;20426;-74
2022/05/31 11:38:19;;;;;;;22.87;12.73;;;;;;;38.74;42.10;101134.72;5037465;28;20834;-73
2022/05/31 11:41:14;;;;;;;23.63;10.47;;;;;;;38.60;42.37;101139.31;5035016;28;20475;-73
2022/05/31 11:43:45;;;;;;;22.93;11.00;;;;;;;38.72;42.13;101146.94;5056855;28;20413;-73
2022/05/31 11:46:34;;;;;;;23.10;11.13;;;;;;;38.78;42.47;101145.72;5057340;28;20464;-73
2022/05/31 11:49:19;;;;;;;16.13;10.80;;;;;;;38.78;42.59;101148.44;5054794;28;20448;-73
2022/05/31 11:52:07;;;;;;;24.93;11.97;;;;;;;38.76;42.86;101147.94;5055843;28;20966;-73
2022/05/31 11:58:11;;;;;;;23.23;11.70;;;;;;;38.99;42.64;101146.88;5073961;28;20460;-75
2022/05/31 12:01:02;;;;;;;28.23;12.20;;;;;;;39.00;42.07;101140.34;5074140;28;20445;-75